Time;durP1;ratioP1;P1;durP2;ratioP2;P2;SDS_P1;SDS_P2;PMS_P1;PMS_P2;Temp;Humidity;BMP_temperature;BMP_pressure;BME280_temperature;BME280_humidity;BME280_pressure;Samples;Min_cycle;Max_cycle;Signal;HPM_P1;HPM_P2
2022/02/17 00:01:04;;;;;;;0.40;0.40;;;10.50;99.90;;;;;;6183585;23;20017;-90
2022/02/17 00:04:13;;;;;;;0.50;0.50;;;10.50;99.90;;;;;;6184203;23;20025;-91
2022/02/17 00:07:19;;;;;;;0.40;0.40;;;10.70;99.90;;;;;;6184091;23;20021;-92
2022/02/17 00:10:09;;;;;;;0.40;0.40;;;10.70;99.90;;;;;;6193285;23;20025;-90
2022/02/17 00:12:59;;;;;;;0.32;0.32;;;10.70;99.90;;;;;;6182182;23;20053;-89
2022/02/17 00:16:01;;;;;;;0.40;0.40;;;10.80;99.90;;;;;;6172543;23;20033;-89
2022/02/17 00:18:50;;;;;;;0.40;0.40;;;10.90;99.90;;;;;;6184841;23;20425;-91
2022/02/17 00:21:49;;;;;;;1.38;0.30;;;10.90;99.90;;;;;;6165309;23;20092;-89
2022/02/17 00:24:58;;;;;;;0.55;0.50;;;10.90;99.90;;;;;;6185646;23;20021;-89
2022/02/17 00:27:51;;;;;;;0.50;0.50;;;10.90;99.90;;;;;;6166253;23;20032;-91
2022/02/17 00:31:02;;;;;;;0.60;0.40;;;11.00;99.90;;;;;;6168478;23;20126;-88
2022/02/17 00:34:10;;;;;;;0.40;0.40;;;11.00;99.90;;;;;;6187593;23;20029;-91
2022/02/17 00:36:58;;;;;;;0.43;0.43;;;11.00;99.90;;;;;;6166016;23;20029;-89
2022/02/17 00:39:45;;;;;;;0.40;0.40;;;10.90;99.90;;;;;;6167716;23;20040;-87
2022/02/17 00:42:45;;;;;;;0.47;0.40;;;10.80;99.90;;;;;;6192221;23;20025;-90
2022/02/17 00:45:47;;;;;;;;;;;;;;;;;;;;;
2022/02/17 00:49:01;;;;;;;;;;;10.90;99.90;;;;;;6193476;23;20146;-89
2022/02/17 00:52:00;;;;;;;0.43;0.30;;;11.00;99.90;;;;;;6199623;23;19916;-88
2022/02/17 00:54:56;;;;;;;0.30;0.30;;;11.00;99.90;;;;;;6181444;23;20053;-90
2022/02/17 00:58:07;;;;;;;0.30;0.30;;;11.00;99.90;;;;;;6206637;23;20025;-88
2022/02/17 01:01:17;;;;;;;0.30;0.30;;;11.00;99.90;;;;;;6204396;23;20028;-90
2022/02/17 01:04:26;;;;;;;0.30;0.30;;;10.90;99.90;;;;;;6183272;23;20385;-91
2022/02/17 01:07:18;;;;;;;0.30;0.30;;;10.90;99.90;;;;;;6182082;23;20354;-89
2022/02/17 01:10:31;;;;;;;0.47;0.40;;;10.90;99.90;;;;;;6181716;23;20120;-90
2022/02/17 01:13:23;;;;;;;0.40;0.40;;;11.00;99.90;;;;;;6205478;23;20021;-90
2022/02/17 01:16:17;;;;;;;0.30;0.30;;;10.80;99.90;;;;;;6159523;23;20083;-90
2022/02/17 01:19:08;;;;;;;0.52;0.32;;;10.80;99.90;;;;;;6193324;23;20036;-91
2022/02/17 01:22:04;;;;;;;0.63;0.50;;;10.70;99.90;;;;;;6195928;23;20021;-90
2022/02/17 01:24:51;;;;;;;0.40;0.40;;;10.50;99.90;;;;;;6193440;23;20080;-88
2022/02/17 01:27:39;;;;;;;0.73;0.55;;;10.40;99.90;;;;;;6194613;23;20021;-90
2022/02/17 01:30:27;;;;;;;0.52;0.40;;;10.30;99.90;;;;;;6173578;23;20273;-90
2022/02/17 01:33:37;;;;;;;1.25;0.40;;;10.20;99.90;;;;;;6094081;23;20101;-87
2022/02/17 01:36:31;;;;;;;1.23;0.30;;;10.10;99.90;;;;;;6097188;23;20042;-87
2022/02/17 01:39:18;;;;;;;0.40;0.40;;;10.10;99.90;;;;;;6095624;23;20049;-90
2022/02/17 01:42:10;;;;;;;1.27;0.40;;;10.10;99.90;;;;;;6093166;23;20031;-91
2022/02/17 01:45:06;;;;;;;1.38;0.40;;;10.10;99.90;;;;;;6076251;23;20149;-90
2022/02/17 01:48:15;;;;;;;0.80;0.40;;;10.00;99.90;;;;;;6095870;23;20022;-90
2022/02/17 01:51:05;;;;;;;0.40;0.40;;;9.90;99.90;;;;;;6187822;23;20056;-92
2022/02/17 01:54:02;;;;;;;2.20;0.40;;;9.90;99.90;;;;;;6186963;23;20020;-92
2022/02/17 01:56:49;;;;;;;0.40;0.40;;;9.90;99.90;;;;;;6148328;23;20025;-91
2022/02/17 02:00:07;;;;;;;0.40;0.40;;;9.90;99.90;;;;;;6182753;23;20087;-93
2022/02/17 02:02:55;;;;;;;0.57;0.40;;;10.00;99.90;;;;;;6185074;23;20025;-88
2022/02/17 02:05:52;;;;;;;0.50;0.50;;;10.00;99.90;;;;;;6185612;23;20024;-91
2022/02/17 02:08:56;;;;;;;;;;;;;;;;;;;;;
2022/02/17 02:12:17;;;;;;;0.40;0.40;;;9.90;99.90;;;;;;6193007;23;20111;-91
2022/02/17 02:15:28;;;;;;;;;;;;;;;;;;;;;
2022/02/17 02:18:45;;;;;;;0.40;0.40;;;9.90;99.90;;;;;;6184890;23;20028;-90
2022/02/17 02:21:37;;;;;;;0.30;0.30;;;9.90;99.90;;;;;;6186513;23;20116;-90
2022/02/17 02:24:51;;;;;;;;;;;;;;;;;;;;;
2022/02/17 02:28:08;;;;;;;0.40;0.40;;;9.80;99.90;;;;;;6181624;23;20042;-90
2022/02/17 02:31:03;;;;;;;1.48;0.40;;;9.90;99.90;;;;;;6191302;23;20036;-91
2022/02/17 02:34:00;;;;;;;0.77;0.40;;;9.90;99.90;;;;;;6189139;23;20328;-91
2022/02/17 02:41:00;;;;;;;0.38;0.38;;;9.80;99.90;;;;;;6167865;23;20035;-91
2022/02/17 02:44:47;;;;;;;1.38;0.30;;;9.80;99.90;;;;;;6186281;23;20103;-90
2022/02/17 02:48:07;;;;;;;1.95;0.40;;;9.80;99.90;;;;;;6186467;23;20080;-89
2022/02/17 02:51:24;;;;;;;2.58;0.40;;;9.90;99.90;;;;;;6170002;23;20024;-90
2022/02/17 02:54:40;;;;;;;0.50;0.40;;;9.90;99.90;;;;;;6190118;23;20021;-91
2022/02/17 02:57:32;;;;;;;0.87;0.40;;;9.90;99.90;;;;;;6187900;23;20129;-89
2022/02/17 03:00:43;;;;;;;3.20;0.40;;;9.90;99.90;;;;;;6049092;23;20580;-89
2022/02/17 03:03:40;;;;;;;0.30;0.30;;;9.90;99.90;;;;;;6048208;23;20176;-90
2022/02/17 03:06:34;;;;;;;;;;;9.90;99.90;;;;;;6046769;23;20090;-87
2022/02/17 03:09:41;;;;;;;0.30;0.30;;;9.80;99.90;;;;;;6067670;23;19955;-88
2022/02/17 03:13:02;;;;;;;0.40;0.40;;;9.90;99.90;;;;;;6069822;23;20023;-88
2022/02/17 03:16:20;;;;;;;0.57;0.35;;;9.80;99.90;;;;;;6056846;23;20074;-92
2022/02/17 03:20:08;;;;;;;;;;;;;;;;;;;;;
2022/02/17 03:23:13;;;;;;;;;;;;;;;;;;;;;
2022/02/17 03:26:07;;;;;;;0.30;0.30;;;9.90;99.90;;;;;;6068370;23;20035;-88
2022/02/17 03:29:05;;;;;;;0.95;0.30;;;9.90;99.90;;;;;;6066107;23;20195;-90
2022/02/17 03:35:11;;;;;;;1.48;0.32;;;9.80;99.90;;;;;;6184410;23;20029;-90
2022/02/17 03:38:05;;;;;;;0.38;0.38;;;9.90;99.90;;;;;;6165090;23;20453;-91
2022/02/17 03:41:21;;;;;;;;;;;;;;;;;;;;;
2022/02/17 03:44:19;;;;;;;0.45;0.45;;;9.90;99.90;;;;;;6185678;23;20320;-91
2022/02/17 03:47:16;;;;;;;1.48;0.30;;;9.80;99.90;;;;;;6186434;23;20024;-91
2022/02/17 03:50:34;;;;;;;0.40;0.40;;;9.90;99.90;;;;;;6165725;23;20021;-91
2022/02/17 03:53:44;;;;;;;0.82;0.35;;;9.90;99.90;;;;;;6169392;23;20080;-89
2022/02/17 03:57:08;;;;;;;0.30;0.30;;;9.80;99.90;;;;;;6183268;23;20025;-90
2022/02/17 04:00:07;;;;;;;0.82;0.40;;;9.80;99.90;;;;;;6165476;23;20448;-91
2022/02/17 04:03:10;;;;;;;;;;;;;;;;;;;;;
2022/02/17 04:06:05;;;;;;;0.40;0.40;;;9.80;99.90;;;;;;6183690;23;20120;-91
2022/02/17 04:08:58;;;;;;;0.50;0.50;;;9.80;99.90;;;;;;6164376;23;20029;-92
2022/02/17 04:12:12;;;;;;;;;;;;;;;;;;;;;
2022/02/17 04:15:32;;;;;;;0.52;0.30;;;9.80;99.90;;;;;;6184991;23;20056;-90
2022/02/17 04:18:30;;;;;;;0.30;0.30;;;9.90;99.90;;;;;;6184087;23;20312;-91
2022/02/17 04:21:36;;;;;;;0.50;0.40;;;9.90;99.90;;;;;;6185737;23;20155;-90
2022/02/17 04:24:33;;;;;;;0.55;0.40;;;9.90;99.90;;;;;;6162306;23;20320;-90
2022/02/17 04:27:39;;;;;;;0.32;0.32;;;10.00;99.90;;;;;;6166741;23;20112;-89
2022/02/17 04:30:35;;;;;;;0.40;0.40;;;10.00;99.90;;;;;;6185091;23;20036;-89
2022/02/17 04:33:41;;;;;;;1.50;0.40;;;10.00;99.90;;;;;;6180171;23;20017;-89
2022/02/17 04:36:48;;;;;;;;;;;;;;;;;;;;;
2022/02/17 04:40:00;;;;;;;;;;;;;;;;;;;;;
2022/02/17 04:46:51;;;;;;;;;;;;;;;;;;;;;
2022/02/17 04:49:59;;;;;;;0.40;0.40;;;10.00;99.90;;;;;;6185372;23;20051;-88
2022/02/17 04:53:13;;;;;;;1.45;0.40;;;10.00;99.90;;;;;;6189940;23;20084;-90
2022/02/17 04:56:07;;;;;;;0.30;0.30;;;10.00;99.90;;;;;;6166997;23;20408;-89
2022/02/17 04:58:56;;;;;;;0.30;0.30;;;9.90;99.90;;;;;;6165019;23;20364;-88
2022/02/17 05:01:46;;;;;;;0.68;0.30;;;9.90;99.90;;;;;;6164219;23;20029;-91
2022/02/17 05:04:43;;;;;;;0.68;0.47;;;10.00;99.90;;;;;;6165624;23;20036;-90
2022/02/17 05:07:52;;;;;;;0.30;0.30;;;10.10;99.90;;;;;;6188626;23;20044;-91
2022/02/17 05:10:49;;;;;;;1.88;0.40;;;10.10;99.90;;;;;;6167174;23;20452;-91
2022/02/17 05:13:44;;;;;;;0.40;0.40;;;10.10;99.90;;;;;;6164411;23;20021;-91
2022/02/17 05:16:40;;;;;;;0.45;0.40;;;10.20;99.90;;;;;;6187840;23;20029;-89
2022/02/17 05:20:00;;;;;;;0.30;0.30;;;10.10;99.90;;;;;;6185977;23;20117;-91
2022/02/17 05:23:10;;;;;;;0.60;0.52;;;10.10;99.90;;;;;;6165017;23;20356;-90
2022/02/17 05:26:48;;;;;;;0.40;0.40;;;10.10;99.90;;;;;;6188725;23;20277;-89
2022/02/17 05:29:51;;;;;;;1.85;0.40;;;10.10;99.90;;;;;;6173637;23;20035;-88
2022/02/17 05:32:42;;;;;;;0.50;0.50;;;10.10;99.90;;;;;;6189611;23;20029;-88
2022/02/17 05:35:30;;;;;;;0.60;0.60;;;10.00;99.90;;;;;;6190071;23;20020;-89
2022/02/17 05:55:27;;;;;;;0.65;0.40;;;9.70;99.90;;;;;;6066965;23;20291;-88
2022/02/17 06:02:54;;;;;;;0.73;0.50;;;9.70;99.90;;;;;;6083536;23;20109;-87
2022/02/17 06:05:41;;;;;;;0.68;0.68;;;9.70;99.90;;;;;;6095231;23;20030;-86
2022/02/17 06:09:19;;;;;;;3.08;0.60;;;9.70;99.90;;;;;;5961355;23;20032;-86
2022/02/17 06:12:07;;;;;;;3.08;0.60;;;9.80;99.90;;;;;;5962471;23;20100;-87
2022/02/17 06:14:57;;;;;;;1.77;0.40;;;9.70;99.90;;;;;;6075265;23;20030;-83
2022/02/17 06:17:44;;;;;;;0.47;0.40;;;9.70;99.90;;;;;;6074662;23;20169;-88
2022/02/17 06:20:38;;;;;;;0.57;0.45;;;9.70;99.90;;;;;;6099866;23;20026;-88
2022/02/17 06:23:25;;;;;;;1.45;0.65;;;9.60;99.90;;;;;;6094997;23;20037;-88
2022/02/17 06:26:12;;;;;;;0.60;0.55;;;9.70;99.90;;;;;;6077536;23;20438;-88
2022/02/17 06:29:04;;;;;;;0.77;0.50;;;9.60;99.90;;;;;;6118149;23;20036;-91
2022/02/17 06:32:01;;;;;;;2.67;1.00;;;9.60;99.90;;;;;;6187269;23;20330;-89
2022/02/17 06:34:50;;;;;;;4.03;0.80;;;9.60;99.90;;;;;;6163964;23;20125;-86
2022/02/17 06:37:44;;;;;;;3.63;0.80;;;9.50;99.90;;;;;;6189560;23;20048;-88
2022/02/17 06:40:35;;;;;;;1.38;1.13;;;9.40;99.90;;;;;;6183796;23;20087;-91
2022/02/17 06:43:23;;;;;;;4.55;0.80;;;9.30;99.90;;;;;;6182775;23;20028;-89
2022/02/17 06:50:33;;;;;;;5.00;1.17;;;9.30;99.90;;;;;;6182427;23;20384;-89
2022/02/17 06:53:58;;;;;;;;;;;;;;;;;;;;;
2022/02/17 06:56:55;;;;;;;3.78;1.20;;;9.10;99.90;;;;;;6183806;23;20025;-87
2022/02/17 07:00:03;;;;;;;4.68;1.33;;;9.00;99.90;;;;;;6160105;23;20024;-87
2022/02/17 07:03:27;;;;;;;3.85;1.08;;;9.00;99.90;;;;;;6185057;23;20084;-87
2022/02/17 07:06:43;;;;;;;3.85;1.48;;;8.90;99.90;;;;;;6182858;23;20043;-88
2022/02/17 07:13:31;;;;;;;3.27;1.17;;;8.80;99.90;;;;;;6034640;23;20160;-88
2022/02/17 07:16:46;;;;;;;2.40;1.20;;;8.90;99.90;;;;;;6182808;23;20123;-85
2022/02/17 07:20:48;;;;;;;;;;;;;;;;;;;;;
2022/02/17 07:24:01;;;;;;;5.15;1.55;;;8.70;99.90;;;;;;6182737;23;20044;-88
2022/02/17 07:27:22;;;;;;;4.35;1.60;;;8.70;99.90;;;;;;6070807;23;20042;-89
2022/02/17 07:30:41;;;;;;;3.90;1.60;;;8.90;99.90;;;;;;6067785;23;20042;-86
2022/02/17 07:33:34;;;;;;;5.65;1.63;;;9.10;99.90;;;;;;6045655;23;20030;-87
2022/02/17 07:36:27;;;;;;;6.60;1.67;;;9.20;99.90;;;;;;6065258;23;20123;-89
2022/02/17 07:39:34;;;;;;;;;;;;;;;;;;;;;
2022/02/17 07:42:58;;;;;;;8.23;2.00;;;9.60;99.90;;;;;;6059554;23;20033;-89
2022/02/17 07:46:17;;;;;;;;;;;;;;;;;;;;;
2022/02/17 07:49:41;;;;;;;6.85;1.75;;;9.70;99.90;;;;;;6067871;23;20034;-87
2022/02/17 07:52:31;;;;;;;5.60;1.95;;;9.70;99.90;;;;;;6046731;23;20026;-88
2022/02/17 07:55:34;;;;;;;8.68;2.20;;;9.80;99.90;;;;;;6046241;23;20130;-84
2022/02/17 07:58:22;;;;;;;15.38;2.05;;;9.80;99.90;;;;;;6165626;23;20032;-87
2022/02/17 08:01:25;;;;;;;15.88;2.25;;;9.80;99.90;;;;;;6185982;23;20051;-89
2022/02/17 08:04:59;;;;;;;10.60;2.38;;;9.90;99.90;;;;;;6195284;23;20087;-89
2022/02/17 08:08:39;;;;;;;;;;;;;;;;;;;;;
2022/02/17 08:17:01;;;;;;;10.63;2.38;;;10.20;99.90;;;;;;6073275;23;20106;-89
2022/02/17 08:20:30;;;;;;;9.13;2.42;;;10.30;99.90;;;;;;5982230;24;20051;-90
2022/02/17 08:23:39;;;;;;;13.77;2.20;;;10.50;99.90;;;;;;5997339;23;20043;-87
2022/02/17 08:26:57;;;;;;;;;;;;;;;;;;;;;
2022/02/17 08:29:56;;;;;;;15.38;2.80;;;10.90;99.90;;;;;;6088628;23;20042;-86
2022/02/17 08:32:43;;;;;;;12.77;2.67;;;10.90;99.90;;;;;;6100794;23;20094;-87
2022/02/17 08:36:52;;;;;;;12.50;3.13;;;10.90;99.90;;;;;;6085005;23;20093;-89
2022/02/17 08:40:08;;;;;;;;;;;;;;;;;;;;;
2022/02/17 08:43:49;;;;;;;;;;;;;;;;;;;;;
2022/02/17 08:47:43;;;;;;;12.57;2.63;;;11.80;99.90;;;;;;6102784;23;20042;-89
2022/02/17 08:50:54;;;;;;;;;;;;;;;;;;;;;
2022/02/17 08:54:18;;;;;;;;;;;;;;;;;;;;;
2022/02/17 09:01:18;;;;;;;11.57;2.45;;;12.30;99.90;;;;;;6040245;23;20629;-90
2022/02/17 09:04:27;;;;;;;10.32;2.40;;;12.30;99.90;;;;;;6043857;23;20096;-89
2022/02/17 09:08:02;;;;;;;15.70;3.47;;;12.30;99.90;;;;;;6070066;23;20044;-90
2022/02/17 09:11:14;;;;;;;11.13;2.35;;;12.50;99.90;;;;;;6146561;23;20032;-89
2022/02/17 09:14:10;;;;;;;15.50;2.78;;;13.20;98.00;;;;;;6163789;23;20035;-88
2022/02/17 09:17:00;;;;;;;11.18;2.20;;;13.30;94.70;;;;;;6162524;23;20144;-90
2022/02/17 09:20:11;;;;;;;16.27;2.75;;;13.20;92.00;;;;;;6164806;23;20333;-90
2022/02/17 09:23:13;;;;;;;17.20;3.10;;;13.20;92.00;;;;;;6183869;23;20107;-89
2022/02/17 09:26:08;;;;;;;9.68;2.53;;;13.10;91.00;;;;;;6161843;23;20021;-88
2022/02/17 09:29:11;;;;;;;;;;;;;;;;;;;;;
2022/02/17 09:32:32;;;;;;;14.15;2.95;;;13.40;90.10;;;;;;6184407;23;20313;-89
2022/02/17 09:35:37;;;;;;;13.13;3.08;;;12.90;91.10;;;;;;6185985;23;20582;-90
2022/02/17 09:38:27;;;;;;;15.18;3.28;;;12.50;92.30;;;;;;6188190;23;20063;-87
2022/02/17 09:45:42;;;;;;;11.95;2.90;;;13.40;91.10;;;;;;6066318;23;20023;-91
2022/02/17 09:48:32;;;;;;;18.02;2.72;;;13.10;81.70;;;;;;6075817;23;20452;-87
2022/02/17 09:51:33;;;;;;;;;;;11.90;91.20;;;;;;6186286;23;20025;-85
2022/02/17 09:54:29;;;;;;;14.93;3.35;;;10.50;99.90;;;;;;6185749;23;19944;-88
2022/02/17 09:57:23;;;;;;;17.88;3.05;;;10.10;99.90;;;;;;6184564;23;20025;-90
2022/02/17 10:00:14;;;;;;;16.10;3.30;;;9.90;99.90;;;;;;6164628;23;20029;-89
2022/02/17 10:03:24;;;;;;;18.25;3.17;;;9.90;99.90;;;;;;6164170;23;20032;-91
2022/02/17 10:06:43;;;;;;;19.63;4.13;;;10.60;1.00;;;;;;6168291;23;20088;-87
2022/02/17 10:09:38;;;;;;;21.73;4.18;;;11.00;99.30;;;;;;6164970;23;20108;-86
2022/02/17 10:13:04;;;;;;;16.63;3.55;;;11.30;95.40;;;;;;6190098;23;20087;-86
2022/02/17 10:15:53;;;;;;;22.83;4.47;;;11.70;91.30;;;;;;6190803;23;20269;-86
2022/02/17 10:18:41;;;;;;;13.95;3.97;;;12.20;87.10;;;;;;6188777;23;20029;-85
2022/02/17 10:21:33;;;;;;;18.20;3.45;;;11.70;87.70;;;;;;6196967;23;20029;-86
2022/02/17 10:24:49;;;;;;;15.70;3.25;;;11.90;89.60;;;;;;6196676;23;20075;-85
2022/02/17 10:27:40;;;;;;;17.30;3.88;;;11.60;90.00;;;;;;6178743;23;20032;-87
2022/02/17 10:30:42;;;;;;;14.82;3.60;;;11.60;89.70;;;;;;6209038;23;20035;-84
2022/02/17 10:51:38;;;;;;;20.00;4.63;;;12.40;84.80;;;;;;5907487;24;20045;-87
2022/02/17 10:54:35;;;;;;;17.10;3.85;;;12.50;86.00;;;;;;5880567;24;20174;-87
2022/02/17 10:57:28;;;;;;;15.52;3.67;;;13.90;80.00;;;;;;5897546;24;20029;-89
2022/02/17 11:00:23;;;;;;;16.35;3.67;;;15.50;72.60;;;;;;5973157;23;20035;-88
2022/02/17 11:04:15;;;;;;;;;;;;;;;;;;;;;
2022/02/17 11:08:05;;;;;;;;;;;;;;;;;;;;;
2022/02/17 11:11:30;;;;;;;14.68;3.63;;;16.10;59.20;;;;;;6002563;23;20056;-89
2022/02/17 11:18:16;;;;;;;10.98;3.00;;;16.50;57.00;;;;;;6073210;23;20026;-92
2022/02/17 11:21:27;;;;;;;13.85;3.40;;;16.40;55.00;;;;;;6157346;23;20093;-88
2022/02/17 11:25:31;;;;;;;11.30;3.80;;;15.90;55.60;;;;;;6156624;23;20026;-91
2022/02/17 11:33:31;;;;;;;;;;;;;;;;;;;;;
2022/02/17 11:36:32;;;;;;;12.60;3.28;;;15.90;52.90;;;;;;5955831;24;20102;-90
2022/02/17 11:44:35;;;;;;;16.08;3.58;;;16.50;53.40;;;;;;5841692;24;20041;-90
2022/02/17 12:30:37;;;;;;;21.50;4.63;;;15.70;55.20;;;;;;6040533;23;20037;-92
2022/02/17 12:34:21;;;;;;;;;;;;;;;;;;;;;
2022/02/17 12:38:08;;;;;;;19.42;4.80;;;15.10;57.10;;;;;;5954013;23;20040;-90
2022/02/17 12:41:42;;;;;;;19.25;4.25;;;14.00;59.60;;;;;;5957806;24;20412;-89
2022/02/17 12:54:02;;;;;;;;;;;;;;;;;;;;;
2022/02/17 13:04:07;;;;;;;24.63;5.07;;;11.80;64.70;;;;;;5962218;23;20084;-89
2022/02/17 13:07:35;;;;;;;28.58;6.03;;;11.50;67.40;;;;;;6062882;23;20399;-90
2022/02/17 13:11:55;;;;;;;;;;;;;;;;;;;;;
2022/02/17 13:15:34;;;;;;;23.80;6.07;;;11.60;67.30;;;;;;5961109;23;20437;-91
2022/02/17 13:22:59;;;;;;;24.17;5.22;;;11.70;68.00;;;;;;5933155;24;20021;-89
2022/02/17 13:26:30;;;;;;;;;;;;;;;;;;;;;
2022/02/17 13:30:18;;;;;;;32.88;6.03;;;11.20;68.80;;;;;;5974182;23;20039;-87
2022/02/17 13:37:53;;;;;;;20.63;4.40;;;12.20;66.90;;;;;;5977738;23;20016;-89
2022/02/17 13:41:02;;;;;;;27.15;6.03;;;13.30;60.50;;;;;;6023499;23;20042;-90
2022/02/17 13:44:30;;;;;;;22.92;4.50;;;12.90;61.90;;;;;;6042557;23;20027;-90
2022/02/17 13:47:50;;;;;;;;;;;;;;;;;;;;;
2022/02/17 13:50:41;;;;;;;23.40;4.72;;;12.70;61.20;;;;;;6039930;23;20027;-89
2022/02/17 13:58:38;;;;;;;19.73;4.55;;;13.00;59.70;;;;;;6008197;23;20033;-88
2022/02/17 14:01:15;;;;;;;20.00;4.50;;;14.10;57.30;;;;;;6045681;23;20038;-88
2022/02/17 14:05:08;;;;;;;;;;;;;;;;;;;;;
2022/02/17 14:08:13;;;;;;;18.20;3.88;;;13.10;58.30;;;;;;5939697;24;20047;-88
2022/02/17 14:11:17;;;;;;;22.83;5.50;;;13.50;58.60;;;;;;5906622;24;20037;-89
2022/02/17 14:14:07;;;;;;;20.83;4.97;;;13.30;59.00;;;;;;5923832;24;20107;-86
2022/02/17 14:16:58;;;;;;;19.25;4.70;;;12.50;61.00;;;;;;6003558;23;20060;-87
2022/02/17 14:19:57;;;;;;;21.88;4.80;;;12.40;62.60;;;;;;6053182;23;20032;-90
2022/02/17 14:23:22;;;;;;;;;;;;;;;;;;;;;
2022/02/17 14:26:57;;;;;;;;;;;;;;;;;;;;;
2022/02/17 14:38:43;;;;;;;14.55;3.30;;;13.80;58.40;;;;;;5920813;24;20038;-88
2022/02/17 14:42:31;;;;;;;;;;;;;;;;;;;;;
2022/02/17 14:45:59;;;;;;;16.02;3.45;;;13.90;57.70;;;;;;5809696;24;20062;-85
2022/02/17 14:53:21;;;;;;;16.17;3.70;;;13.50;56.90;;;;;;5775057;24;20043;-90
2022/02/17 14:57:12;;;;;;;15.30;3.35;;;12.80;59.10;;;;;;5720250;24;20376;-91
2022/02/17 15:00:58;;;;;;;16.23;3.88;;;12.20;60.70;;;;;;5721057;24;20024;-92
2022/02/17 15:04:18;;;;;;;;;;;;;;;;;;;;;
2022/02/17 15:07:49;;;;;;;15.55;3.58;;;12.40;60.90;;;;;;5921290;24;20029;-92
2022/02/17 15:12:03;;;;;;;;;;;;;;;;;;;;;
2022/02/17 15:15:38;;;;;;;18.27;4.53;;;10.80;66.60;;;;;;5899024;24;20018;-91
2022/02/17 15:19:07;;;;;;;21.20;4.43;;;10.80;67.60;;;;;;5933296;24;20366;-90
2022/02/17 15:22:03;;;;;;;;;;;;;;;;;;;;;
2022/02/17 15:34:52;;;;;;;23.08;4.00;;;10.70;69.10;;;;;;5880331;24;20517;-91
2022/02/17 15:37:58;;;;;;;22.63;4.10;;;10.10;71.60;;;;;;5878370;24;20065;-91
2022/02/17 15:41:22;;;;;;;24.52;4.00;;;10.00;75.30;;;;;;5915096;24;20071;-90
2022/02/17 15:44:20;;;;;;;21.65;4.47;;;9.40;1.00;;;;;;5932154;24;20020;-89
2022/02/17 15:48:10;;;;;;;;;;;;;;;;;;;;;
2022/02/17 15:51:21;;;;;;;26.67;4.32;;;9.30;99.90;;;;;;6073365;23;20105;-90
2022/02/17 15:59:21;;;;;;;22.17;4.95;;;9.10;99.90;;;;;;6050238;23;20081;-90
2022/02/17 16:02:38;;;;;;;26.08;4.70;;;9.10;96.20;;;;;;6109274;23;20105;-90
2022/02/17 16:06:13;;;;;;;28.70;4.97;;;9.00;1.00;;;;;;6083796;23;20034;-90
2022/02/17 16:10:04;;;;;;;;;;;;;;;;;;;;;
2022/02/17 16:13:06;;;;;;;23.13;4.70;;;9.00;99.90;;;;;;5978695;24;20039;-90
2022/02/17 16:16:22;;;;;;;20.48;4.32;;;8.90;99.90;;;;;;5975551;24;20401;-89
2022/02/17 16:19:31;;;;;;;31.83;5.68;;;8.90;1.00;;;;;;5977849;23;20031;-91
2022/02/17 16:23:24;;;;;;;;;;;;;;;;;;;;;
2022/02/17 16:26:39;;;;;;;19.40;3.97;;;9.00;5.20;;;;;;5949471;23;20039;-90
2022/02/17 16:30:23;;;;;;;18.00;4.88;;;9.00;1.00;;;;;;5978206;24;20044;-91
2022/02/17 16:33:29;;;;;;;25.73;4.90;;;9.00;1.00;;;;;;5977457;23;20032;-89
2022/02/17 16:36:37;;;;;;;18.23;4.03;;;8.90;1.00;;;;;;5971242;23;20057;-88
2022/02/17 16:39:27;;;;;;;27.85;4.88;;;8.90;1.00;;;;;;6069033;23;20046;-88
2022/02/17 16:49:25;;;;;;;20.77;4.55;;;8.60;1.00;;;;;;6015733;23;20059;-87
2022/02/17 16:52:26;;;;;;;23.13;4.25;;;8.60;1.00;;;;;;5998032;23;20442;-90
2022/02/17 16:55:25;;;;;;;25.67;4.80;;;8.50;99.90;;;;;;6073994;23;20026;-88
2022/02/17 16:58:35;;;;;;;26.33;5.13;;;8.40;99.90;;;;;;6073408;23;20038;-90
2022/02/17 17:01:35;;;;;;;27.40;5.57;;;8.50;99.90;;;;;;6095143;23;20026;-91
2022/02/17 17:04:44;;;;;;;;;;;;;;;;;;;;;
2022/02/17 17:11:58;;;;;;;28.17;4.72;;;8.30;99.90;;;;;;6100090;23;20466;-87
2022/02/17 17:20:01;;;;;;;;;;;;;;;;;;;;;
2022/02/17 17:23:33;;;;;;;;;;;;;;;;;;;;;
2022/02/17 17:27:09;;;;;;;29.20;4.80;;;8.20;99.90;;;;;;6039064;23;20091;-90
2022/02/17 17:30:04;;;;;;;31.33;5.43;;;8.20;99.90;;;;;;6044457;23;20070;-88
2022/02/17 17:33:16;;;;;;;20.42;5.22;;;8.30;99.90;;;;;;6042018;23;20035;-91
2022/02/17 17:36:17;;;;;;;34.50;5.28;;;8.30;99.90;;;;;;6035857;23;20091;-91
2022/02/17 17:48:12;;;;;;;;;;;;;;;;;;;;;
2022/02/17 17:52:11;;;;;;;;;;;;;;;;;;;;;
2022/02/17 18:00:59;;;;;;;;;;;;;;;;;;;;;
2022/02/17 18:08:46;;;;;;;35.50;6.45;;;8.10;99.90;;;;;;5767672;24;20034;-87
2022/02/17 18:11:38;;;;;;;29.02;5.32;;;8.00;1.00;;;;;;5829079;24;20353;-88
2022/02/17 18:15:09;;;;;;;;;;;;;;;;;;;;;
2022/02/17 18:18:41;;;;;;;26.52;5.75;;;8.00;1.00;;;;;;5815396;24;20351;-88
2022/02/17 18:21:58;;;;;;;42.75;6.95;;;7.90;1.00;;;;;;5965983;23;20016;-89
2022/02/17 18:24:45;;;;;;;30.92;6.07;;;7.90;1.00;;;;;;6003144;23;20147;-89
2022/02/17 18:32:45;;;;;;;;;;;;;;;;;;;;;
2022/02/17 18:36:24;;;;;;;;;;;;;;;;;;;;;
2022/02/17 18:48:43;;;;;;;;;;;;;;;;;;;;;
2022/02/17 19:04:17;;;;;;;;;;;;;;;;;;;;;
2022/02/17 19:07:18;;;;;;;29.25;5.72;;;7.60;1.00;;;;;;5876089;24;20018;-91
2022/02/17 19:13:59;;;;;;;34.97;5.85;;;7.70;99.90;;;;;;5873977;24;20021;-89
2022/02/17 19:17:32;;;;;;;34.25;6.75;;;7.70;99.90;;;;;;5911920;24;20045;-90
2022/02/17 19:21:12;;;;;;;;;;;;;;;;;;;;;
2022/02/17 19:24:54;;;;;;;35.83;8.15;;;7.70;99.90;;;;;;5845713;24;20035;-90
2022/02/17 19:28:40;;;;;;;37.25;7.15;;;7.70;99.90;;;;;;5850317;24;20082;-91
2022/02/17 19:39:55;;;;;;;33.80;6.10;;;7.60;99.90;;;;;;5845518;24;20022;-92
2022/02/17 19:43:42;;;;;;;26.15;5.57;;;7.60;99.90;;;;;;5874602;24;20030;-92
2022/02/17 19:47:34;;;;;;;;;;;;;;;;;;;;;
2022/02/17 19:50:56;;;;;;;;;;;;;;;;;;;;;
2022/02/17 19:54:44;;;;;;;35.53;5.88;;;7.60;1.00;;;;;;5871026;24;20417;-89
2022/02/17 19:57:47;;;;;;;32.85;7.13;;;7.70;1.00;;;;;;5875379;24;20033;-89
2022/02/17 20:01:34;;;;;;;;;;;;;;;;;;;;;
2022/02/17 20:04:49;;;;;;;;;;;;;;;;;;;;;
2022/02/17 20:08:32;;;;;;;;;;;;;;;;;;;;;
2022/02/17 20:11:50;;;;;;;27.77;5.55;;;7.70;42.70;;;;;;6012702;23;20095;-89
2022/02/17 20:14:55;;;;;;;32.67;6.38;;;7.60;1.00;;;;;;6001909;23;20040;-85
2022/02/17 20:18:42;;;;;;;;;;;;;;;;;;;;;
2022/02/17 20:52:15;;;;;;;;;;;;;;;;;;;;;
2022/02/17 21:12:50;;;;;;;36.22;6.60;;;7.30;1.00;;;;;;6006558;23;20042;-89
2022/02/17 21:16:36;;;;;;;;;;;;;;;;;;;;;
2022/02/17 21:28:13;;;;;;;;;;;;;;;;;;;;;
2022/02/17 21:34:44;;;;;;;44.30;7.00;;;7.00;99.50;;;;;;6087423;23;20362;-89
2022/02/17 21:41:36;;;;;;;;;;;;;;;;;;;;;
2022/02/17 21:44:53;;;;;;;29.40;6.25;;;7.10;67.80;;;;;;6132497;23;20259;-89
2022/02/17 21:48:09;;;;;;;36.92;6.82;;;7.10;62.70;;;;;;6143832;23;20047;-88
2022/02/17 21:59:54;;;;;;;;;;;;;;;;;;;;;
2022/02/17 22:03:15;;;;;;;38.80;6.97;;;6.90;99.90;;;;;;6096003;23;20041;-89
2022/02/17 22:06:23;;;;;;;29.73;5.75;;;6.90;1.00;;;;;;6064223;23;20034;-89
2022/02/17 22:09:31;;;;;;;38.22;6.43;;;6.80;99.90;;;;;;6075110;23;20070;-89
2022/02/17 22:12:28;;;;;;;29.55;5.93;;;6.80;99.90;;;;;;6074996;23;20035;-90
2022/02/17 22:15:19;;;;;;;45.28;7.30;;;6.70;99.90;;;;;;6056064;23;20037;-89
2022/02/17 22:18:06;;;;;;;44.33;9.35;;;6.70;99.90;;;;;;6095247;23;20022;-90
2022/02/17 22:29:14;;;;;;;;;;;;;;;;;;;;;
2022/02/17 22:53:46;;;;;;;39.67;6.50;;;6.70;99.90;;;;;;5882863;24;20056;-90
2022/02/17 22:57:33;;;;;;;;;;;;;;;;;;;;;
2022/02/17 23:01:26;;;;;;;50.05;8.35;;;6.70;99.90;;;;;;5875323;24;20045;-91
2022/02/17 23:11:56;;;;;;;;;;;;;;;;;;;;;
2022/02/17 23:39:03;;;;;;;;;;;;;;;;;;;;;
